Current Conditions
Clear
Conditions




Pressure
1018.92 (mb) - 30.09 (inHG)
Visibility

6.2 (mimiles) - 10.0 (km)
   Temperature
11  °C
52°F
9  °C
Dewpoint
88  %
 Humidity
   Wind Speed
13  mph
11  kts
21  km/h
5.8  m/s
   Wind Direction
 50°
North East
   Airport Data
EGGD
Location Bristol Airport 15 mi (24.14 km)
Metar :EGGD 190050Z AUTO 05011KT 9999 NCD 11/09 Q1019
Sat 19th September 01:50 am
   Raw Metar Info
Raw METAR is the most common format in the world for the transmission of observational weather data. It is highly standardized through the International Civil Aviation Organization (ICAO), which allows it to be understood throughout most of the world.
   API Info
Data Provided by
https://www.checkwx.com/weather/EGGD
   © Info
CSS/SVG/PHP scripts were developed by weather34.com for use in the weather34 template © 2015-2020

Guide Info provided by Metar-Wikipedia